createdAt,value
2019-01-13T00:00:13.457Z,99505.77
2019-01-13T00:02:41.908Z,99508.72
2019-01-13T00:05:10.530Z,99508.30
2019-01-13T00:07:38.976Z,99506.19
2019-01-13T00:10:08.042Z,99494.76
2019-01-13T00:12:36.451Z,99503.67
2019-01-13T00:15:07.937Z,99510.90
2019-01-13T00:17:36.411Z,99507.54
2019-01-13T00:20:08.032Z,99505.84
2019-01-13T00:22:36.481Z,99511.86
2019-01-13T00:25:06.523Z,99505.08
2019-01-13T00:27:35.008Z,99504.63
2019-01-13T00:30:05.533Z,99509.26
2019-01-13T00:32:33.963Z,99518.09
2019-01-13T00:35:02.375Z,99521.00
2019-01-13T00:37:30.824Z,99516.74
2019-01-13T00:39:59.236Z,99519.34
2019-01-13T00:42:27.687Z,99512.54
2019-01-13T00:44:56.177Z,99525.22
2019-01-13T00:47:24.614Z,99518.47
2019-01-13T00:49:53.042Z,99528.68
2019-01-13T00:52:21.448Z,99527.41
2019-01-13T00:54:49.850Z,99523.61
2019-01-13T00:57:18.316Z,99531.23
2019-01-13T00:59:46.712Z,99535.48
2019-01-13T01:02:15.182Z,99539.27
2019-01-13T01:04:43.605Z,99538.00
2019-01-13T01:07:12.140Z,99541.81
2019-01-13T01:09:40.713Z,99519.36
2019-01-13T01:12:09.183Z,99539.64
2019-01-13T01:14:37.594Z,99524.88
2019-01-13T01:17:06.074Z,99524.05
2019-01-13T01:19:34.496Z,99521.50
2019-01-13T01:22:02.929Z,99530.40
2019-01-13T01:24:31.363Z,99528.70
2019-01-13T01:26:59.766Z,99518.15
2019-01-13T01:29:28.368Z,99519.02
2019-01-13T01:31:56.780Z,99511.81
2019-01-13T01:34:25.201Z,99521.07
2019-01-13T01:36:54.293Z,99521.51
2019-01-13T01:39:22.802Z,99517.70
2019-01-13T01:41:51.282Z,99533.33
2019-01-13T01:44:19.724Z,99526.98
2019-01-13T01:46:48.218Z,99522.79
2019-01-13T01:49:16.645Z,99521.14
2019-01-13T01:51:45.737Z,99526.22
2019-01-13T01:54:14.199Z,99519.87
2019-01-13T01:56:42.592Z,99519.47
2019-01-13T01:59:11.033Z,99509.31
2019-01-13T02:01:39.541Z,99517.38
2019-01-13T02:04:08.000Z,99513.14
2019-01-13T02:06:36.931Z,99514.84
2019-01-13T02:09:07.291Z,99516.95
2019-01-13T02:11:35.762Z,99514.39
2019-01-13T02:14:04.277Z,99511.41
2019-01-13T02:16:32.747Z,99504.55
2019-01-13T02:19:01.153Z,99507.55
2019-01-13T02:21:29.624Z,99504.58
2019-01-13T02:23:58.087Z,99511.74
2019-01-13T02:26:26.486Z,99504.13
2019-01-13T02:28:54.911Z,99509.19
2019-01-13T02:31:23.404Z,99499.03
2019-01-13T02:33:51.833Z,99505.37
2019-01-13T02:36:20.256Z,99504.09
2019-01-13T02:38:48.682Z,99507.45
2019-01-13T02:41:17.097Z,99509.55
2019-01-13T02:43:45.585Z,99512.94
2019-01-13T02:46:14.002Z,99500.22
2019-01-13T02:48:42.428Z,99491.40
2019-01-13T02:51:10.998Z,99483.78
2019-01-13T02:53:39.417Z,99476.19
2019-01-13T02:56:07.816Z,99472.38
2019-01-13T02:58:36.244Z,99474.52
2019-01-13T03:01:04.662Z,99472.38
2019-01-13T03:03:33.105Z,99467.73
2019-01-13T03:06:01.600Z,99469.45
2019-01-13T03:08:30.012Z,99474.09
2019-01-13T03:10:58.595Z,99467.30
2019-01-13T03:13:27.025Z,99472.88
2019-01-13T03:15:55.435Z,99478.02
2019-01-13T03:18:23.889Z,99485.22
2019-01-13T03:20:52.869Z,99480.64
2019-01-13T03:23:21.274Z,99477.59
2019-01-13T03:25:49.734Z,99472.90
2019-01-13T03:28:18.120Z,99478.80
2019-01-13T03:30:46.568Z,99484.31
2019-01-13T03:33:15.014Z,99480.45
2019-01-13T03:35:44.230Z,99475.78
2019-01-13T03:38:12.662Z,99483.33
2019-01-13T03:40:41.078Z,99477.81
2019-01-13T03:43:09.645Z,99474.38
2019-01-13T03:45:38.090Z,99472.66
2019-01-13T03:48:06.579Z,99471.38
2019-01-13T03:50:35.000Z,99461.59
2019-01-13T03:53:03.433Z,99470.55
2019-01-13T03:55:31.851Z,99469.27
2019-01-13T03:58:00.298Z,99459.95
2019-01-13T04:00:28.711Z,99453.61
2019-01-13T04:02:57.142Z,99439.68
2019-01-13T04:05:25.555Z,99444.33
2019-01-13T04:07:54.840Z,99441.72
2019-01-13T04:10:23.357Z,99434.09
2019-01-13T04:12:51.800Z,99427.73
2019-01-13T04:15:35.126Z,99433.21
2019-01-13T04:18:03.686Z,99429.83
2019-01-13T04:20:32.119Z,99426.00
2019-01-13T04:23:00.419Z,99427.72
2019-01-13T04:25:28.915Z,99416.70
2019-01-13T04:27:57.434Z,99413.77
2019-01-13T04:30:25.863Z,99410.03
2019-01-13T04:32:54.299Z,99393.91
2019-01-13T04:35:22.737Z,99398.15
2019-01-13T04:37:51.180Z,99393.00
2019-01-13T04:40:19.598Z,99394.73
2019-01-13T04:42:48.000Z,99393.00
2019-01-13T04:45:16.536Z,99384.08
2019-01-13T04:47:45.013Z,99379.41
2019-01-13T04:50:15.604Z,99368.87
2019-01-13T04:52:44.020Z,99372.29
2019-01-13T04:55:12.978Z,99372.68
2019-01-13T04:57:41.794Z,99368.94
2019-01-13T05:00:15.900Z,99364.69
2019-01-13T05:02:44.380Z,99361.70
2019-01-13T05:05:12.987Z,99364.70
2019-01-13T05:07:41.457Z,99362.59
2019-01-13T05:10:12.953Z,99380.31
2019-01-13T05:12:41.390Z,99372.75
2019-01-13T05:15:09.935Z,99360.50
2019-01-13T05:17:38.851Z,99350.80
2019-01-13T05:20:10.656Z,99351.70
2019-01-13T05:22:39.066Z,99360.98
2019-01-13T05:25:08.540Z,99360.14
2019-01-13T05:27:37.025Z,99352.98
2019-01-13T05:30:11.503Z,99347.38
2019-01-13T05:32:39.928Z,99346.63
2019-01-13T05:35:08.515Z,99347.48
2019-01-13T05:37:36.940Z,99335.66
2019-01-13T05:40:08.461Z,99337.37
2019-01-13T05:42:36.830Z,99333.12
2019-01-13T05:45:08.491Z,99322.14
2019-01-13T05:47:36.924Z,99315.80
2019-01-13T05:50:08.294Z,99308.17
2019-01-13T05:52:37.922Z,99306.84
2019-01-13T05:55:08.632Z,99297.10
2019-01-13T05:57:37.758Z,99293.65
2019-01-13T06:00:21.481Z,99290.23
2019-01-13T06:02:49.903Z,99291.00
2019-01-13T06:05:18.403Z,99279.52
2019-01-13T06:07:46.891Z,99283.08
2019-01-13T06:10:17.781Z,99280.02
2019-01-13T06:12:46.352Z,99283.26
2019-01-13T06:15:17.570Z,99283.28
2019-01-13T06:17:46.011Z,99285.47
2019-01-13T06:20:16.903Z,99277.33
2019-01-13T06:22:45.445Z,99282.34
2019-01-13T06:25:14.838Z,99278.18
2019-01-13T06:27:43.251Z,99274.91
2019-01-13T06:30:15.034Z,99284.64
2019-01-13T06:32:43.561Z,99284.64
2019-01-13T06:35:12.028Z,99277.84
2019-01-13T06:37:40.480Z,99283.80
2019-01-13T06:40:12.300Z,99276.63
2019-01-13T06:42:40.722Z,99274.59
2019-01-13T06:45:12.359Z,99275.86
2019-01-13T06:47:40.858Z,99275.86
2019-01-13T06:50:12.601Z,99276.30
2019-01-13T06:52:41.212Z,99280.09
2019-01-13T06:55:11.460Z,99268.23
2019-01-13T06:57:40.612Z,99271.20
2019-01-13T07:00:23.138Z,99265.70
2019-01-13T07:02:51.566Z,99269.86
2019-01-13T07:05:20.067Z,99271.57
2019-01-13T07:07:48.473Z,99274.50
2019-01-13T07:10:16.937Z,99271.13
2019-01-13T07:12:45.421Z,99266.03
2019-01-13T07:15:18.730Z,99256.33
2019-01-13T07:17:47.152Z,99252.23
2019-01-13T07:20:19.463Z,99252.65
2019-01-13T07:22:48.308Z,99248.91
2019-01-13T07:25:16.915Z,99246.83
2019-01-13T07:27:45.487Z,99236.73
2019-01-13T07:30:16.669Z,99228.70
2019-01-13T07:32:45.179Z,99225.72
2019-01-13T07:35:13.646Z,99213.18
2019-01-13T07:37:42.121Z,99213.18
2019-01-13T07:40:13.883Z,99210.64
2019-01-13T07:42:43.447Z,99210.27
2019-01-13T07:45:14.668Z,99210.66
2019-01-13T07:47:43.094Z,99204.73
2019-01-13T07:50:14.478Z,99193.33
2019-01-13T07:52:43.055Z,99177.64
2019-01-13T07:55:14.230Z,99181.91
2019-01-13T07:57:43.260Z,99172.55
2019-01-13T08:00:14.716Z,99166.22
2019-01-13T08:02:43.258Z,99159.42
2019-01-13T08:05:11.735Z,99145.88
2019-01-13T08:07:40.141Z,99149.27
2019-01-13T08:10:14.359Z,99132.75
2019-01-13T08:12:42.941Z,99122.21
2019-01-13T08:15:16.953Z,99120.48
2019-01-13T08:17:45.722Z,99111.14
2019-01-13T08:20:20.180Z,99106.09
2019-01-13T08:22:48.654Z,99097.64
2019-01-13T08:25:17.190Z,99096.81
2019-01-13T08:27:45.593Z,99095.09
2019-01-13T08:30:17.087Z,99072.22
2019-01-13T08:32:45.635Z,99073.88
2019-01-13T08:35:14.138Z,99064.98
2019-01-13T08:37:42.536Z,99059.91
2019-01-13T08:40:16.710Z,99051.38
2019-01-13T08:42:45.119Z,99040.80
2019-01-13T08:45:14.003Z,99017.06
2019-01-13T08:47:42.434Z,99016.63
2019-01-13T08:50:19.755Z,99005.98
2019-01-13T08:52:48.379Z,98999.62
2019-01-13T08:55:17.027Z,98983.91
2019-01-13T08:57:46.172Z,98982.16
2019-01-13T09:00:30.837Z,98984.62
2019-01-13T09:02:59.356Z,98975.31
2019-01-13T09:05:27.867Z,98968.44
2019-01-13T09:07:56.247Z,98965.02
2019-01-13T09:10:24.765Z,98955.59
2019-01-13T09:12:56.901Z,98952.99
2019-01-13T09:15:25.330Z,98951.72
2019-01-13T09:17:53.882Z,98944.09
2019-01-13T09:20:24.931Z,98946.20
2019-01-13T09:22:53.400Z,98935.14
2019-01-13T09:25:22.001Z,98929.59
2019-01-13T09:27:50.452Z,98924.16
2019-01-13T09:30:23.999Z,98905.45
2019-01-13T09:32:52.434Z,98903.67
2019-01-13T09:35:20.923Z,98899.48
2019-01-13T09:37:49.427Z,98898.97
2019-01-13T09:40:23.570Z,98895.95
2019-01-13T09:42:52.142Z,98889.13
2019-01-13T09:45:20.635Z,98892.84
2019-01-13T09:47:49.132Z,98875.78
2019-01-13T09:50:20.225Z,98872.77
2019-01-13T09:52:48.726Z,98867.62
2019-01-13T09:55:19.380Z,98863.33
2019-01-13T09:57:47.883Z,98864.59
2019-01-13T10:00:22.344Z,98847.98
2019-01-13T10:02:50.867Z,98844.55
2019-01-13T10:05:19.310Z,98843.66
2019-01-13T10:07:47.829Z,98839.39
2019-01-13T10:10:16.426Z,98824.63
2019-01-13T10:12:44.978Z,98821.59
2019-01-13T10:15:16.673Z,98809.67
2019-01-13T10:17:45.082Z,98807.14
2019-01-13T10:20:15.259Z,98793.84
2019-01-13T10:22:43.739Z,98797.10
2019-01-13T10:25:12.920Z,98793.19
2019-01-13T10:27:41.336Z,98785.97
2019-01-13T10:30:20.356Z,98785.28
2019-01-13T10:32:54.711Z,98776.27
2019-01-13T10:35:19.121Z,98769.94
2019-01-13T10:37:47.680Z,98762.62
2019-01-13T10:40:18.818Z,98756.48
2019-01-13T10:42:47.670Z,98755.93
2019-01-13T10:45:18.055Z,98746.39
2019-01-13T10:47:46.549Z,98738.64
2019-01-13T10:50:18.239Z,98736.84
2019-01-13T10:52:46.806Z,98730.78
2019-01-13T10:55:17.386Z,98719.66
2019-01-13T10:57:46.247Z,98722.51
2019-01-13T11:00:20.485Z,98720.00
2019-01-13T11:02:49.070Z,98706.34
2019-01-13T11:05:17.558Z,98708.39
2019-01-13T11:07:46.442Z,98698.22
2019-01-13T11:10:16.941Z,98705.36
2019-01-13T11:12:45.727Z,98698.02
2019-01-13T11:15:21.548Z,98695.88
2019-01-13T11:17:47.241Z,98684.80
2019-01-13T11:20:27.556Z,98688.53
2019-01-13T11:22:56.076Z,98675.80
2019-01-13T11:25:24.521Z,98676.96
2019-01-13T11:27:52.932Z,98661.19
2019-01-13T11:30:23.955Z,98658.65
2019-01-13T11:32:52.387Z,98655.61
2019-01-13T11:35:21.011Z,98644.56
2019-01-13T11:37:50.251Z,98639.34
2019-01-13T11:40:24.585Z,98640.17
2019-01-13T11:42:53.083Z,98635.86
2019-01-13T11:45:21.654Z,98639.63
2019-01-13T11:47:50.129Z,98613.39
2019-01-13T11:50:20.835Z,98613.27
2019-01-13T11:52:49.244Z,98609.80
2019-01-13T11:55:18.342Z,98605.05
2019-01-13T11:57:46.939Z,98601.22
2019-01-13T12:00:21.046Z,98593.13
2019-01-13T12:02:49.544Z,98586.77
2019-01-13T12:05:18.274Z,98580.77
2019-01-13T12:07:47.007Z,98573.04
2019-01-13T12:10:20.462Z,98560.31
2019-01-13T12:12:49.659Z,98567.00
2019-01-13T12:15:22.395Z,98567.33
2019-01-13T12:17:50.820Z,98562.19
2019-01-13T12:20:24.368Z,98556.59
2019-01-13T12:22:52.851Z,98551.32
2019-01-13T12:25:23.372Z,98534.31
2019-01-13T12:27:52.555Z,98542.31
2019-01-13T12:30:29.251Z,98540.95
2019-01-13T12:32:58.226Z,98547.64
2019-01-13T12:35:26.660Z,98531.94
2019-01-13T12:37:55.087Z,98517.08
2019-01-13T12:40:25.845Z,98502.64
2019-01-13T12:42:54.329Z,98509.02
2019-01-13T12:45:23.809Z,98501.74
2019-01-13T12:47:52.825Z,98497.88
2019-01-13T12:50:26.728Z,98495.64
2019-01-13T12:52:55.224Z,98489.67
2019-01-13T12:55:23.678Z,98492.14
2019-01-13T12:57:52.167Z,98485.27
2019-01-13T13:00:21.959Z,98483.57
2019-01-13T13:02:50.442Z,98482.16
2019-01-13T13:05:19.311Z,98474.47
2019-01-13T13:07:48.248Z,98473.62
2019-01-13T13:10:19.751Z,98480.76
2019-01-13T13:12:48.167Z,98461.23
2019-01-13T13:15:16.690Z,98477.34
2019-01-13T13:17:45.113Z,98466.38
2019-01-13T13:20:17.450Z,98452.73
2019-01-13T13:22:45.973Z,98446.36
2019-01-13T13:25:15.043Z,98444.20
2019-01-13T13:27:43.554Z,98443.76
2019-01-13T13:30:20.757Z,98439.88
2019-01-13T13:32:49.390Z,98441.20
2019-01-13T13:35:18.251Z,98432.19
2019-01-13T13:37:47.101Z,98412.67
2019-01-13T13:40:18.456Z,98413.08
2019-01-13T13:42:49.009Z,98414.77
2019-01-13T13:45:17.746Z,98414.77
2019-01-13T13:47:46.840Z,98408.34
2019-01-13T13:50:18.289Z,98410.95
2019-01-13T13:52:51.402Z,98404.98
2019-01-13T13:55:19.860Z,98398.20
2019-01-13T13:57:48.479Z,98401.66
2019-01-13T14:00:24.221Z,98394.89
2019-01-13T14:02:52.704Z,98392.74
2019-01-13T14:05:21.175Z,98387.75
2019-01-13T14:07:49.666Z,98389.43
2019-01-13T14:10:24.066Z,98390.39
2019-01-13T14:12:52.562Z,98384.44
2019-01-13T14:15:21.412Z,98370.42
2019-01-13T14:17:50.653Z,98368.73
2019-01-13T14:20:20.563Z,98361.28
2019-01-13T14:22:49.077Z,98360.01
2019-01-13T14:25:17.570Z,98355.78
2019-01-13T14:27:46.014Z,98354.52
2019-01-13T14:30:17.210Z,98346.05
2019-01-13T14:32:45.694Z,98334.53
2019-01-13T14:35:14.664Z,98328.16
2019-01-13T14:37:43.650Z,98311.26
2019-01-13T14:40:18.083Z,98307.52
2019-01-13T14:42:46.570Z,98315.53
2019-01-13T14:45:17.799Z,98303.70
2019-01-13T14:47:46.835Z,98298.97
2019-01-13T14:50:23.990Z,98307.94
2019-01-13T14:52:52.759Z,98298.61
2019-01-13T14:55:21.202Z,98301.97
2019-01-13T14:57:49.722Z,98294.84
2019-01-13T15:00:23.797Z,98292.66
2019-01-13T15:02:52.357Z,98299.11
2019-01-13T15:05:21.034Z,98300.39
2019-01-13T15:07:49.570Z,98303.81
2019-01-13T15:10:20.504Z,98300.45
2019-01-13T15:12:49.325Z,98292.49
2019-01-13T15:15:17.915Z,98280.27
2019-01-13T15:17:46.425Z,98276.55
2019-01-13T15:20:19.870Z,98268.91
2019-01-13T15:22:49.456Z,98259.48
2019-01-13T15:25:24.007Z,98253.27
2019-01-13T15:27:52.448Z,98255.05
2019-01-13T15:30:26.534Z,98249.95
2019-01-13T15:32:54.954Z,98244.47
2019-01-13T15:35:23.411Z,98249.55
2019-01-13T15:37:51.882Z,98243.28
2019-01-13T15:40:21.670Z,98236.45
2019-01-13T15:42:50.381Z,98236.00
2019-01-13T15:45:19.827Z,98234.73
2019-01-13T15:47:48.351Z,98228.42
2019-01-13T15:50:22.227Z,98233.45
2019-01-13T15:52:50.748Z,98232.69
2019-01-13T15:55:19.394Z,98220.87
2019-01-13T15:57:47.876Z,98221.31
2019-01-13T16:00:19.469Z,98212.41
2019-01-13T16:02:47.983Z,98211.86
2019-01-13T16:05:16.677Z,98207.68
2019-01-13T16:07:45.240Z,98198.77
2019-01-13T16:10:19.128Z,98192.40
2019-01-13T16:12:47.711Z,98196.59
2019-01-13T16:15:16.294Z,98199.89
2019-01-13T16:17:44.878Z,98188.06
2019-01-13T16:20:25.657Z,98185.06
2019-01-13T16:22:54.157Z,98176.97
2019-01-13T16:25:22.561Z,98174.77
2019-01-13T16:27:51.030Z,98165.91
2019-01-13T16:30:23.986Z,98160.81
2019-01-13T16:32:52.707Z,98164.69
2019-01-13T16:35:21.406Z,98141.41
2019-01-13T16:37:49.862Z,98145.28
2019-01-13T16:40:20.572Z,98144.32
2019-01-13T16:42:49.096Z,98138.86
2019-01-13T16:45:18.629Z,98133.31
2019-01-13T16:47:48.445Z,98111.52
2019-01-13T16:50:18.978Z,98111.16
2019-01-13T16:52:49.823Z,98125.52
2019-01-13T16:55:19.130Z,98090.72
2019-01-13T16:57:47.538Z,98096.99
2019-01-13T17:00:24.439Z,98098.66
2019-01-13T17:02:52.926Z,98112.27
2019-01-13T17:05:22.957Z,98103.75
2019-01-13T17:07:51.520Z,98108.85
2019-01-13T17:10:21.990Z,98098.15
2019-01-13T17:12:50.493Z,98107.64
2019-01-13T17:15:24.238Z,98116.77
2019-01-13T17:17:52.642Z,98100.93
2019-01-13T17:20:24.261Z,98099.86
2019-01-13T17:22:52.799Z,98121.42
2019-01-13T17:25:26.066Z,98124.93
2019-01-13T17:27:54.646Z,98156.00
2019-01-13T17:30:28.354Z,98185.48
2019-01-13T17:32:56.758Z,98196.95
2019-01-13T17:35:25.257Z,98191.53
2019-01-13T17:37:53.685Z,98192.39
2019-01-13T17:40:24.343Z,98179.64
2019-01-13T17:42:53.355Z,98175.53
2019-01-13T17:45:24.613Z,98195.36
2019-01-13T17:47:53.267Z,98199.06
2019-01-13T17:50:23.900Z,98189.12
2019-01-13T17:52:52.537Z,98199.94
2019-01-13T17:55:23.494Z,98208.59
2019-01-13T17:57:52.036Z,98210.84
2019-01-13T18:00:41.399Z,98218.98
2019-01-13T18:03:18.788Z,98222.02
2019-01-13T18:05:47.255Z,98228.36
2019-01-13T18:08:15.708Z,98221.16
2019-01-13T18:10:44.134Z,98227.80
2019-01-13T18:13:12.619Z,98233.64
2019-01-13T18:15:41.160Z,98222.88
2019-01-13T18:18:10.770Z,98228.08
2019-01-13T18:20:39.309Z,98236.39
2019-01-13T18:23:07.843Z,98224.06
2019-01-13T18:25:36.345Z,98228.91
2019-01-13T18:28:04.991Z,98228.03
2019-01-13T18:30:33.446Z,98225.09
2019-01-13T18:33:02.004Z,98213.41
2019-01-13T18:35:30.718Z,98226.63
2019-01-13T18:37:59.158Z,98216.34
2019-01-13T18:40:27.687Z,98220.27
2019-01-13T18:42:56.143Z,98213.52
2019-01-13T18:45:24.582Z,98209.34
2019-01-13T18:47:53.056Z,98203.36
2019-01-13T18:50:23.554Z,98216.20
2019-01-13T18:53:06.962Z,98199.47
2019-01-13T18:55:35.423Z,98202.45
2019-01-13T18:58:04.396Z,98222.34
2019-01-13T19:00:33.652Z,98225.01
2019-01-13T19:03:03.361Z,98219.58
2019-01-13T19:05:31.949Z,98215.41
2019-01-13T19:08:01.642Z,98230.52
2019-01-13T19:10:50.016Z,98229.28
2019-01-13T19:13:27.414Z,98241.55
2019-01-13T19:15:58.346Z,98231.92
2019-01-13T19:18:26.822Z,98237.81
2019-01-13T19:20:55.374Z,98239.67
2019-01-13T19:23:25.977Z,98244.53
2019-01-13T19:25:54.410Z,98248.70
2019-01-13T19:28:22.891Z,98255.83
2019-01-13T19:30:51.305Z,98247.63
2019-01-13T19:33:19.780Z,98253.13
2019-01-13T19:35:48.207Z,98236.91
2019-01-13T19:38:16.659Z,98217.70
2019-01-13T19:40:45.169Z,98260.36
2019-01-13T19:43:13.606Z,98250.79
2019-01-13T19:45:42.027Z,98246.45
2019-01-13T19:48:11.596Z,98251.30
2019-01-13T19:50:40.028Z,98242.45
2019-01-13T19:53:09.008Z,98261.63
2019-01-13T19:55:37.491Z,98272.88
2019-01-13T19:58:05.953Z,98271.89
2019-01-13T20:00:34.825Z,98262.99
2019-01-13T20:03:03.438Z,98252.41
2019-01-13T20:05:32.010Z,98259.87
2019-01-13T20:08:00.750Z,98254.30
2019-01-13T20:10:29.340Z,98266.88
2019-01-13T20:12:57.784Z,98257.81
2019-01-13T20:15:26.249Z,98269.42
2019-01-13T20:17:54.732Z,98270.84
2019-01-13T20:20:23.722Z,98268.85
2019-01-13T20:22:52.730Z,98263.89
2019-01-13T20:25:21.453Z,98259.37
2019-01-13T20:27:49.985Z,98264.50
2019-01-13T20:30:21.333Z,98267.08
2019-01-13T20:32:49.956Z,98255.83
2019-01-13T20:35:19.487Z,98259.37
2019-01-13T20:37:48.371Z,98258.14
2019-01-13T20:40:18.039Z,98253.02
2019-01-13T20:42:47.194Z,98257.97
2019-01-13T20:45:21.465Z,98244.48
2019-01-13T20:47:50.272Z,98242.00
2019-01-13T20:50:18.811Z,98251.06
2019-01-13T20:52:47.281Z,98244.52
2019-01-13T20:55:16.472Z,98245.33
2019-01-13T20:57:45.131Z,98237.44
2019-01-13T21:00:21.855Z,98242.97
2019-01-13T21:02:50.380Z,98252.91
2019-01-13T21:05:26.311Z,98241.08
2019-01-13T21:07:50.066Z,98251.84
2019-01-13T21:10:20.142Z,98241.58
2019-01-13T21:12:49.208Z,98226.47
2019-01-13T21:15:32.738Z,98252.16
2019-01-13T21:18:01.176Z,98240.59
2019-01-13T21:20:29.682Z,98254.53
2019-01-13T21:22:58.326Z,98260.84
2019-01-13T21:25:26.882Z,98277.26
2019-01-13T21:27:57.012Z,98285.11
2019-01-13T21:30:28.250Z,98294.67
2019-01-13T21:32:56.814Z,98290.25
2019-01-13T21:35:25.454Z,98296.20
2019-01-13T21:37:54.340Z,98301.33
2019-01-13T21:40:22.930Z,98302.59
2019-01-13T21:42:51.476Z,98297.14
2019-01-13T21:45:22.651Z,98303.28
2019-01-13T21:47:51.162Z,98302.46
2019-01-13T21:50:24.941Z,98290.80
2019-01-13T21:52:54.139Z,98304.55
2019-01-13T21:55:22.646Z,98310.45
2019-01-13T21:57:51.324Z,98309.36
2019-01-13T22:00:23.369Z,98302.50
2019-01-13T22:02:52.192Z,98296.44
2019-01-13T22:05:20.710Z,98305.25
2019-01-13T22:07:49.621Z,98301.11
2019-01-13T22:10:20.442Z,98306.27
2019-01-13T22:12:48.963Z,98302.59
2019-01-13T22:15:19.333Z,98292.93
2019-01-13T22:17:47.876Z,98309.19
2019-01-13T22:20:23.569Z,98301.70
2019-01-13T22:22:53.433Z,98309.00
2019-01-13T22:25:22.361Z,98304.04
2019-01-13T22:27:50.879Z,98313.02
2019-01-13T22:30:23.657Z,98316.62
2019-01-13T22:32:52.216Z,98325.93
2019-01-13T22:35:20.647Z,98328.21
2019-01-13T22:37:55.598Z,98332.02
2019-01-13T22:40:19.960Z,98308.87
2019-01-13T22:42:48.477Z,98320.72
2019-01-13T22:45:21.983Z,98344.92
2019-01-13T22:47:50.571Z,98325.19
2019-01-13T22:50:20.535Z,98368.34
2019-01-13T22:52:49.814Z,98366.49
2019-01-13T22:55:18.267Z,98356.56
2019-01-13T22:57:47.236Z,98354.06
2019-01-13T23:00:20.353Z,98371.02
2019-01-13T23:02:48.802Z,98381.66
2019-01-13T23:05:17.692Z,98392.19
2019-01-13T23:07:46.148Z,98389.76
2019-01-13T23:10:14.562Z,98389.02
2019-01-13T23:12:42.983Z,98392.45
2019-01-13T23:15:11.632Z,98397.91
2019-01-13T23:17:40.115Z,98390.63
2019-01-13T23:20:10.319Z,98410.36
2019-01-13T23:22:38.732Z,98412.05
2019-01-13T23:25:07.231Z,98412.53
2019-01-13T23:27:35.698Z,98429.82
2019-01-13T23:30:06.965Z,98421.00
2019-01-13T23:32:35.377Z,98424.81
2019-01-13T23:35:04.402Z,98435.78
2019-01-13T23:37:32.882Z,98456.44
2019-01-13T23:40:01.322Z,98452.97
2019-01-13T23:42:29.785Z,98465.03
2019-01-13T23:44:58.180Z,98465.95
2019-01-13T23:47:26.585Z,98464.25
2019-01-13T23:49:55.045Z,98466.06
2019-01-13T23:52:23.472Z,98469.87
2019-01-13T23:54:51.909Z,98484.28
2019-01-13T23:57:20.424Z,98490.80
2019-01-13T23:59:48.863Z,98496.09
